< < Back
Terminal Aerodrome Forecast


Current Version              Previous Versions:   1  2  3  4  5  6  7  8  9  

Terminal Aerodrome Forecast

210
FTUS44 KBMX 201100
TAFMGM
TAF
KMGM 201134Z 2012/2112 00000KT P6SM BKN250
     FM201500 28006KT P6SM SCT040
     FM210100 00000KT P6SM SKC=

Latest METAR

533
SAUS80 KWBC 201400
MTRMGM
METAR KMGM 201353Z 25003KT 10SM CLR 26/22 A3009 RMK AO2 SLP186
T02560222


USA.gov is the U.S. government's official web portal to all federal, state and local government web resources and services.